Mcbride, Canada
Current Conditions -  °F | °C
As of 2:00 AM on Saturday 22 Nov 2014 (Local Time) from CYQZ Reporting Station
Overcast Overcast  
Wind Chill:   Ceiling: 8000
Heat Index:   Visibility: 9mi
Dew Point:   Wind: 0mph
Humidity: 100%   Direction: NA
Pressure: 29.2"   Gusts: NA
Location:  53.3°N, 120.17°W
Report Text: CYQZ 221000Z AUTO 00000KT 9SM FEW047 OVC080 02/02 A2920 RMK SLP908
Loading
Personal Weather Stations






























Interactive Weather Map New forecast layout! Learn more

10-Day Weather Forecast

Advertisements
Track Severe Weather on mobile